createdAt,value
2022-11-04T00:00:29.927Z,13.00
2022-11-04T00:02:58.484Z,11.60
2022-11-04T00:05:26.473Z,15.00
2022-11-04T00:08:26.434Z,12.00
2022-11-04T00:11:14.788Z,11.60
2022-11-04T00:13:42.813Z,14.00
2022-11-04T00:16:28.392Z,12.00
2022-11-04T00:18:56.494Z,11.00
2022-11-04T00:21:42.202Z,13.00
2022-11-04T00:24:24.826Z,11.50
2022-11-04T00:27:11.851Z,13.00
2022-11-04T00:29:39.855Z,13.80
2022-11-04T00:32:25.522Z,14.00
2022-11-04T00:34:53.505Z,17.60
2022-11-04T00:37:21.535Z,13.00
2022-11-04T00:39:49.518Z,17.00
2022-11-04T00:42:18.869Z,17.00
2022-11-04T00:44:46.847Z,13.60
2022-11-04T00:47:14.849Z,15.00
2022-11-04T00:49:42.837Z,12.40
2022-11-04T00:52:10.844Z,13.00
2022-11-04T00:54:38.835Z,14.50
2022-11-04T00:57:06.833Z,16.00
2022-11-04T00:59:36.163Z,12.33
2022-11-04T01:02:04.263Z,19.00
2022-11-04T01:04:32.390Z,13.00
2022-11-04T01:07:00.425Z,12.80
2022-11-04T01:09:28.404Z,15.20
2022-11-04T01:11:56.534Z,15.75
2022-11-04T01:14:24.517Z,20.00
2022-11-04T01:16:53.882Z,16.60
2022-11-04T01:19:21.886Z,12.25
2022-11-04T01:21:52.427Z,12.00
2022-11-04T01:24:20.584Z,16.60
2022-11-04T01:26:48.615Z,15.80
2022-11-04T01:29:16.599Z,15.80
2022-11-04T01:31:44.638Z,16.00
2022-11-04T01:34:13.995Z,16.00
2022-11-04T01:36:42.027Z,11.25
2022-11-04T01:39:10.396Z,18.50
2022-11-04T01:41:38.407Z,15.60
2022-11-04T01:44:45.544Z,16.00
2022-11-04T01:47:15.302Z,17.60
2022-11-04T01:49:44.690Z,14.20
2022-11-04T01:52:14.017Z,13.75
2022-11-04T01:54:42.208Z,16.00
2022-11-04T01:57:14.869Z,14.50
2022-11-04T01:59:43.147Z,16.00
2022-11-04T02:02:11.337Z,16.50
2022-11-04T02:04:39.914Z,19.00
2022-11-04T02:07:10.234Z,13.00
2022-11-04T02:09:39.337Z,16.80
2022-11-04T02:12:25.034Z,15.00
2022-11-04T02:14:53.068Z,19.60
2022-11-04T02:17:31.344Z,18.00
2022-11-04T02:20:16.448Z,16.00
2022-11-04T02:23:06.829Z,15.00
2022-11-04T02:25:58.062Z,13.67
2022-11-04T02:28:46.779Z,18.40
2022-11-04T02:31:17.484Z,15.80
2022-11-04T02:33:48.891Z,14.25
2022-11-04T02:36:20.252Z,19.00
2022-11-04T02:38:51.792Z,15.00
2022-11-04T02:41:25.602Z,15.00
2022-11-04T02:43:58.390Z,20.20
2022-11-04T02:46:32.021Z,16.50
2022-11-04T02:49:01.898Z,17.00
2022-11-04T02:51:32.308Z,16.40
2022-11-04T02:54:04.245Z,16.00
2022-11-04T02:56:32.537Z,14.00
2022-11-04T02:59:02.884Z,11.50
2022-11-04T03:01:34.655Z,16.00
2022-11-04T03:04:05.100Z,15.80
2022-11-04T03:06:33.143Z,17.00
2022-11-04T03:09:01.365Z,15.00
2022-11-04T03:11:29.420Z,16.40
2022-11-04T03:13:58.939Z,16.00
2022-11-04T03:16:28.726Z,15.00
2022-11-04T03:19:01.926Z,16.00
2022-11-04T03:21:30.012Z,15.40
2022-11-04T03:23:58.036Z,17.40
2022-11-04T03:26:29.930Z,16.00
2022-11-04T03:29:02.818Z,15.00
2022-11-04T03:31:36.016Z,16.33
2022-11-04T03:34:05.399Z,16.80
2022-11-04T03:36:33.442Z,17.50
2022-11-04T03:39:01.465Z,15.00
2022-11-04T03:41:32.939Z,15.20
2022-11-04T03:44:00.988Z,18.80
2022-11-04T03:46:29.387Z,17.00
2022-11-04T03:48:57.454Z,14.50
2022-11-04T03:51:26.879Z,20.50
2022-11-04T03:53:55.132Z,18.25
2022-11-04T03:56:53.055Z,18.80
2022-11-04T03:59:31.379Z,17.50
2022-11-04T04:02:01.629Z,17.25
2022-11-04T04:04:30.515Z,16.60
2022-11-04T04:07:02.317Z,14.40
2022-11-04T04:09:34.595Z,18.25
2022-11-04T04:12:04.411Z,19.50
2022-11-04T04:14:42.526Z,15.40
2022-11-04T04:17:13.883Z,21.00
2022-11-04T04:19:43.103Z,18.00
2022-11-04T04:22:14.035Z,21.00
2022-11-04T04:25:01.423Z,19.00
2022-11-04T04:27:32.055Z,20.40
2022-11-04T04:30:00.341Z,15.60
2022-11-04T04:32:29.230Z,22.20
2022-11-04T04:35:17.598Z,18.00
2022-11-04T04:37:46.984Z,21.00
2022-11-04T04:40:34.420Z,26.20
2022-11-04T04:43:16.347Z,20.00
2022-11-04T04:45:44.681Z,22.80
2022-11-04T04:48:13.731Z,20.80
2022-11-04T04:50:43.771Z,23.75
2022-11-04T04:53:13.148Z,24.25
2022-11-04T04:55:41.912Z,17.00
2022-11-04T04:58:10.215Z,18.50
2022-11-04T05:00:38.257Z,17.60
2022-11-04T05:03:06.429Z,23.50
2022-11-04T05:05:34.731Z,18.25
2022-11-04T05:08:06.644Z,18.25
2022-11-04T05:10:36.335Z,20.00
2022-11-04T05:13:21.769Z,22.80
2022-11-04T05:15:49.839Z,22.20
2022-11-04T05:18:17.868Z,24.00
2022-11-04T05:20:45.924Z,18.50
2022-11-04T05:23:14.797Z,17.00
2022-11-04T05:25:44.211Z,19.00
2022-11-04T05:28:12.331Z,23.00
2022-11-04T05:30:40.723Z,19.00
2022-11-04T05:33:09.029Z,23.00
2022-11-04T05:35:37.211Z,24.00
2022-11-04T05:38:05.225Z,20.20
2022-11-04T05:40:33.265Z,23.20
2022-11-04T05:43:02.656Z,20.75
2022-11-04T05:45:30.741Z,20.40
2022-11-04T05:47:59.810Z,20.00
2022-11-04T05:50:27.892Z,18.00
2022-11-04T05:52:57.438Z,21.50
2022-11-04T05:55:25.708Z,25.00
2022-11-04T05:57:53.867Z,20.50
2022-11-04T06:00:23.513Z,25.75
2022-11-04T06:02:51.613Z,20.50
2022-11-04T06:05:19.718Z,23.20
2022-11-04T06:07:47.754Z,25.00
2022-11-04T06:10:15.929Z,24.00
2022-11-04T06:12:43.952Z,19.80
2022-11-04T06:15:12.268Z,21.00
2022-11-04T06:17:41.650Z,24.40
2022-11-04T06:20:10.907Z,17.20
2022-11-04T06:22:38.936Z,20.80
2022-11-04T06:25:07.266Z,24.00
2022-11-04T06:27:35.284Z,26.00
2022-11-04T06:30:03.321Z,20.00
2022-11-04T06:32:31.340Z,28.00
2022-11-04T06:35:00.743Z,22.25
2022-11-04T06:37:28.883Z,22.00
2022-11-04T06:39:56.923Z,26.00
2022-11-04T06:42:26.879Z,24.00
2022-11-04T06:44:54.935Z,25.00
2022-11-04T06:47:24.918Z,20.25
2022-11-04T06:49:53.229Z,26.00
2022-11-04T06:52:22.614Z,21.20
2022-11-04T06:54:50.663Z,21.40
2022-11-04T06:57:18.683Z,21.20
2022-11-04T06:59:46.723Z,21.00
2022-11-04T07:02:14.847Z,22.50
2022-11-04T07:04:43.072Z,19.50
2022-11-04T07:07:11.120Z,19.25
2022-11-04T07:09:40.686Z,20.40
2022-11-04T07:12:08.702Z,24.00
2022-11-04T07:14:36.745Z,20.40
2022-11-04T07:17:04.759Z,24.20
2022-11-04T07:19:32.803Z,19.75
2022-11-04T07:22:00.828Z,21.00
2022-11-04T07:24:28.876Z,21.20
2022-11-04T07:26:58.321Z,29.80
2022-11-04T07:29:26.650Z,21.60
2022-11-04T07:31:54.663Z,21.60
2022-11-04T07:34:22.900Z,21.00
2022-11-04T07:36:50.917Z,23.40
2022-11-04T07:39:18.969Z,22.50
2022-11-04T07:41:46.985Z,21.75
2022-11-04T07:44:16.382Z,22.40
2022-11-04T07:46:44.416Z,25.00
2022-11-04T07:49:12.770Z,27.25
2022-11-04T07:51:40.797Z,20.00
2022-11-04T07:54:08.890Z,20.60
2022-11-04T07:56:36.904Z,35.80
2022-11-04T07:59:07.367Z,24.20
2022-11-04T08:01:36.788Z,30.60
2022-11-04T08:04:05.371Z,28.60
2022-11-04T08:06:33.389Z,24.40
2022-11-04T08:09:01.518Z,25.00
2022-11-04T08:11:29.641Z,30.00
2022-11-04T08:13:57.767Z,58.00
2022-11-04T08:16:30.110Z,83.00
2022-11-04T08:19:03.498Z,141.25
2022-11-04T08:21:31.943Z,67.25
2022-11-04T08:24:00.091Z,59.00
2022-11-04T08:26:28.118Z,31.40
2022-11-04T08:28:56.570Z,31.40
2022-11-04T08:31:25.401Z,24.00
2022-11-04T08:33:53.535Z,27.60
2022-11-04T08:36:23.776Z,28.60
2022-11-04T08:38:51.886Z,27.00
2022-11-04T08:41:21.140Z,28.40
2022-11-04T08:43:49.203Z,51.00
2022-11-04T08:46:17.307Z,35.25
2022-11-04T08:48:45.450Z,26.20
2022-11-04T08:51:14.308Z,26.00
2022-11-04T08:53:43.687Z,30.00
2022-11-04T08:56:13.616Z,25.00
2022-11-04T08:58:41.628Z,42.00
2022-11-04T09:01:10.924Z,39.00
2022-11-04T09:03:39.049Z,34.60
2022-11-04T09:06:08.618Z,26.00
2022-11-04T09:08:38.001Z,23.50
2022-11-04T09:11:09.033Z,28.80
2022-11-04T09:13:39.836Z,26.75
2022-11-04T09:16:09.096Z,23.00
2022-11-04T09:18:37.116Z,21.00
2022-11-04T09:21:06.188Z,27.40
2022-11-04T09:23:34.304Z,32.25
2022-11-04T09:26:05.421Z,26.60
2022-11-04T09:28:34.799Z,29.40
2022-11-04T09:31:06.496Z,24.40
2022-11-04T09:33:34.589Z,25.00
2022-11-04T09:36:02.664Z,27.00
2022-11-04T09:38:30.698Z,28.60
2022-11-04T09:40:59.756Z,24.60
2022-11-04T09:43:37.861Z,23.40
2022-11-04T09:46:05.995Z,24.25
2022-11-04T09:48:35.966Z,28.25
2022-11-04T09:51:05.830Z,21.25
2022-11-04T09:53:39.421Z,23.75
2022-11-04T09:56:09.852Z,21.00
2022-11-04T09:58:39.820Z,28.00
2022-11-04T10:01:14.565Z,23.40
2022-11-04T10:03:48.933Z,22.80
2022-11-04T10:06:34.693Z,23.00
2022-11-04T10:09:08.252Z,26.00
2022-11-04T10:11:38.480Z,17.80
2022-11-04T10:14:16.596Z,19.00
2022-11-04T10:16:50.998Z,18.00
2022-11-04T10:19:26.195Z,19.00
2022-11-04T10:22:02.525Z,21.40
2022-11-04T10:24:38.976Z,21.00
2022-11-04T10:27:10.842Z,19.75
2022-11-04T10:29:43.810Z,19.00
2022-11-04T10:32:19.462Z,17.33
2022-11-04T10:34:51.999Z,21.00
2022-11-04T10:37:20.027Z,19.80
2022-11-04T10:39:48.270Z,23.75
2022-11-04T10:42:18.263Z,22.00
2022-11-04T10:44:47.898Z,18.20
2022-11-04T10:47:22.535Z,19.00
2022-11-04T10:52:46.591Z,19.00
2022-11-04T10:55:19.948Z,17.00
2022-11-04T10:57:47.966Z,16.40
2022-11-04T11:00:39.305Z,16.80
2022-11-04T11:03:27.658Z,24.20
2022-11-04T11:05:56.106Z,19.00
2022-11-04T11:08:31.286Z,16.40
2022-11-04T11:10:59.327Z,16.00
2022-11-04T11:13:28.222Z,19.00
2022-11-04T11:16:08.730Z,15.50
2022-11-04T11:18:38.417Z,14.20
2022-11-04T11:21:10.273Z,17.80
2022-11-04T11:23:40.506Z,16.00
2022-11-04T11:26:08.938Z,15.50
2022-11-04T11:28:39.145Z,15.40
2022-11-04T11:31:13.265Z,14.00
2022-11-04T11:33:43.138Z,14.00
2022-11-04T11:36:15.840Z,17.00
2022-11-04T11:38:57.695Z,15.75
2022-11-04T11:41:31.509Z,17.80
2022-11-04T11:44:01.808Z,14.25
2022-11-04T11:46:32.222Z,14.25
2022-11-04T11:49:02.096Z,18.25
2022-11-04T11:51:32.730Z,16.60
2022-11-04T11:54:23.752Z,18.50
2022-11-04T11:57:12.681Z,17.25
2022-11-04T12:02:46.951Z,20.50
2022-11-04T12:10:58.783Z,20.00
2022-11-04T12:13:29.576Z,19.20
2022-11-04T12:16:21.192Z,20.80
2022-11-04T12:19:05.749Z,29.00
2022-11-04T12:21:34.952Z,21.00
2022-11-04T12:24:06.912Z,18.40
2022-11-04T12:26:37.917Z,22.50
2022-11-04T12:29:29.932Z,20.00
2022-11-04T12:32:00.797Z,16.00
2022-11-04T12:34:36.539Z,18.40
2022-11-04T12:37:11.885Z,17.75
2022-11-04T12:39:56.368Z,16.40
2022-11-04T12:42:32.778Z,17.00
2022-11-04T12:45:07.711Z,15.00
2022-11-04T12:47:37.478Z,22.75
2022-11-04T12:50:33.369Z,20.40
2022-11-04T12:53:09.313Z,20.50
2022-11-04T12:55:44.147Z,16.40
2022-11-04T12:58:19.313Z,17.20
2022-11-04T13:00:49.393Z,17.40
2022-11-04T13:03:19.283Z,16.20
2022-11-04T13:05:51.722Z,20.00
2022-11-04T13:08:23.843Z,16.80
2022-11-04T13:10:54.374Z,17.60
2022-11-04T13:13:25.627Z,16.25
2022-11-04T13:15:55.374Z,19.00
2022-11-04T13:18:23.760Z,15.00
2022-11-04T13:21:02.130Z,19.75
2022-11-04T13:23:35.766Z,23.80
2022-11-04T13:26:03.859Z,17.60
2022-11-04T13:28:31.907Z,14.00
2022-11-04T13:31:04.203Z,16.60
2022-11-04T13:33:37.609Z,16.50
2022-11-04T13:36:13.816Z,16.00
2022-11-04T13:38:43.686Z,18.75
2022-11-04T13:41:25.816Z,19.60
2022-11-04T13:43:54.313Z,19.00
2022-11-04T13:46:29.940Z,18.80
2022-11-04T13:49:03.161Z,20.75
2022-11-04T13:51:40.602Z,19.40
2022-11-04T13:54:08.922Z,21.00
2022-11-04T13:56:37.760Z,18.00
2022-11-04T13:59:15.744Z,16.80
2022-11-04T14:01:44.088Z,17.00
2022-11-04T14:04:27.877Z,19.00
2022-11-04T14:07:01.757Z,22.60
2022-11-04T14:09:38.342Z,30.60
2022-11-04T14:12:20.171Z,21.00
2022-11-04T14:14:48.940Z,26.00
2022-11-04T14:17:50.139Z,23.67
2022-11-04T14:20:23.602Z,19.00
2022-11-04T14:22:54.527Z,22.00
2022-11-04T14:25:31.319Z,19.75
2022-11-04T14:28:00.039Z,20.25
2022-11-04T14:30:33.207Z,18.00
2022-11-04T14:33:02.454Z,19.00
2022-11-04T14:35:30.986Z,19.00
2022-11-04T14:38:02.323Z,19.50
2022-11-04T14:40:46.263Z,21.75
2022-11-04T14:43:20.652Z,17.40
2022-11-04T14:45:48.663Z,22.00
2022-11-04T14:48:18.682Z,27.00
2022-11-04T14:50:48.484Z,21.00
2022-11-04T14:53:20.663Z,18.00
2022-11-04T14:55:48.819Z,21.25
2022-11-04T14:58:23.770Z,21.60
2022-11-04T15:00:53.876Z,26.00
2022-11-04T15:04:09.407Z,19.00
2022-11-04T15:06:14.585Z,21.20
2022-11-04T15:08:46.151Z,20.80
2022-11-04T15:11:17.437Z,28.00
2022-11-04T15:13:46.752Z,21.00
2022-11-04T15:16:16.537Z,22.80
2022-11-04T15:18:44.566Z,36.67
2022-11-04T15:21:12.613Z,31.50
2022-11-04T15:23:41.927Z,41.75
2022-11-04T15:26:23.906Z,34.50
2022-11-04T15:28:56.343Z,50.00
2022-11-04T15:31:25.708Z,104.50
2022-11-04T15:33:54.728Z,81.00
2022-11-04T15:36:23.959Z,44.00
2022-11-04T15:38:53.655Z,55.00
2022-11-04T15:41:41.271Z,47.00
2022-11-04T15:44:16.784Z,40.75
2022-11-04T15:46:52.235Z,33.00
2022-11-04T15:49:24.217Z,32.40
2022-11-04T15:51:52.266Z,18.80
2022-11-04T15:54:23.120Z,15.00
2022-11-04T15:56:55.152Z,15.00
2022-11-04T15:59:24.728Z,14.00
2022-11-04T16:01:56.679Z,18.40
2022-11-04T16:04:25.921Z,21.50
2022-11-04T16:07:05.861Z,19.75
2022-11-04T16:09:39.867Z,15.50
2022-11-04T16:12:13.906Z,15.33
2022-11-04T16:14:48.663Z,24.75
2022-11-04T16:17:16.684Z,16.00
2022-11-04T16:19:50.569Z,17.00
2022-11-04T16:22:20.834Z,16.50
2022-11-04T16:24:49.571Z,17.80
2022-11-04T16:27:20.155Z,16.80
2022-11-04T16:29:53.487Z,25.00
2022-11-04T16:32:26.750Z,16.40
2022-11-04T16:34:56.543Z,22.00
2022-11-04T16:37:25.623Z,17.50
2022-11-04T16:39:53.674Z,18.50
2022-11-04T16:42:23.038Z,16.00
2022-11-04T16:44:51.912Z,15.00
2022-11-04T16:47:20.151Z,16.80
2022-11-04T16:49:48.191Z,15.80
2022-11-04T16:52:18.338Z,15.60
2022-11-04T16:54:48.067Z,19.00
2022-11-04T16:57:16.248Z,16.67
2022-11-04T16:59:45.654Z,23.80
2022-11-04T17:02:26.751Z,19.00
2022-11-04T17:04:54.878Z,22.00
2022-11-04T17:07:35.210Z,19.00
2022-11-04T17:10:14.979Z,25.75
2022-11-04T17:12:43.128Z,16.00
2022-11-04T17:15:12.853Z,23.40
2022-11-04T17:17:40.899Z,24.50
2022-11-04T17:20:11.598Z,17.00
2022-11-04T17:22:39.611Z,17.25
2022-11-04T17:25:14.352Z,17.75
2022-11-04T17:27:42.382Z,18.25
2022-11-04T17:30:14.133Z,16.00
2022-11-04T17:32:42.179Z,18.00
2022-11-04T17:35:10.572Z,21.00
2022-11-04T17:37:38.708Z,19.50
2022-11-04T17:40:08.044Z,21.20
2022-11-04T17:42:53.576Z,36.20
2022-11-04T17:45:22.979Z,39.00
2022-11-04T17:47:50.990Z,29.00
2022-11-04T17:50:19.134Z,21.00
2022-11-04T17:52:49.278Z,23.50
2022-11-04T17:55:21.882Z,21.00
2022-11-04T17:57:52.677Z,19.25
2022-11-04T18:00:24.412Z,18.40
2022-11-04T18:02:52.691Z,17.80
2022-11-04T18:05:20.830Z,19.40
2022-11-04T18:07:48.844Z,18.80
2022-11-04T18:10:16.968Z,23.00
2022-11-04T18:12:46.071Z,15.00
2022-11-04T18:15:17.144Z,25.00
2022-11-04T18:17:46.880Z,18.00
2022-11-04T18:20:15.741Z,19.50
2022-11-04T18:22:44.463Z,17.00
2022-11-04T18:25:12.707Z,16.00
2022-11-04T18:27:40.740Z,17.75
2022-11-04T18:30:10.107Z,17.20
2022-11-04T18:32:38.121Z,15.00
2022-11-04T18:35:08.429Z,15.80
2022-11-04T18:37:36.437Z,16.00
2022-11-04T18:40:04.686Z,17.50
2022-11-04T18:42:32.700Z,20.00
2022-11-04T18:45:00.748Z,16.00
2022-11-04T18:47:28.763Z,23.25
2022-11-04T18:49:56.932Z,17.40
2022-11-04T18:52:26.311Z,20.00
2022-11-04T18:54:54.351Z,16.60
2022-11-04T18:57:22.375Z,16.50
2022-11-04T18:59:50.418Z,29.00
2022-11-04T19:02:20.636Z,23.00
2022-11-04T19:04:48.786Z,19.00
2022-11-04T19:07:16.821Z,21.00
2022-11-04T19:09:47.741Z,16.00
2022-11-04T19:12:33.392Z,16.00
2022-11-04T19:15:01.463Z,17.25
2022-11-04T19:17:29.569Z,19.75
2022-11-04T19:19:58.212Z,17.50
2022-11-04T19:22:26.243Z,23.80
2022-11-04T19:24:55.838Z,15.80
2022-11-04T19:27:25.150Z,17.67
2022-11-04T19:29:53.314Z,22.25
2022-11-04T19:32:21.335Z,21.00
2022-11-04T19:34:49.713Z,17.00
2022-11-04T19:37:17.756Z,20.50
2022-11-04T19:39:45.840Z,18.00
2022-11-04T19:42:32.534Z,16.80
2022-11-04T19:45:00.571Z,21.20
2022-11-04T19:47:28.582Z,23.50
2022-11-04T19:49:56.785Z,23.25
2022-11-04T19:52:24.799Z,16.00
2022-11-04T19:54:52.835Z,18.00
2022-11-04T19:57:22.241Z,14.80
2022-11-04T19:59:51.863Z,15.50
2022-11-04T20:02:20.031Z,15.00
2022-11-04T20:04:50.087Z,15.00
2022-11-04T20:07:18.188Z,19.00
2022-11-04T20:09:46.242Z,14.00
2022-11-04T20:12:31.872Z,16.60
2022-11-04T20:15:01.276Z,15.40
2022-11-04T20:17:29.299Z,15.20
2022-11-04T20:19:57.342Z,13.00
2022-11-04T20:22:25.371Z,17.00
2022-11-04T20:24:53.429Z,15.20
2022-11-04T20:27:21.444Z,13.00
2022-11-04T20:29:49.485Z,13.75
2022-11-04T20:32:18.859Z,12.60
2022-11-04T20:34:46.910Z,15.00
2022-11-04T20:37:14.963Z,15.50
2022-11-04T20:39:43.814Z,12.50
2022-11-04T20:42:11.885Z,14.40
2022-11-04T20:44:39.918Z,15.00
2022-11-04T20:47:07.934Z,14.50
2022-11-04T20:49:38.409Z,15.40
2022-11-04T20:52:06.567Z,14.75
2022-11-04T20:54:34.971Z,14.75
2022-11-04T20:57:02.978Z,18.60
2022-11-04T20:59:31.071Z,13.00
2022-11-04T21:01:59.240Z,13.60
2022-11-04T21:04:31.815Z,16.00
2022-11-04T21:07:04.907Z,15.00
2022-11-04T21:09:33.081Z,13.50
2022-11-04T21:12:01.115Z,15.40
2022-11-04T21:14:30.395Z,13.00
2022-11-04T21:16:58.429Z,12.00
2022-11-04T21:19:26.451Z,15.00
2022-11-04T21:21:54.504Z,9.25
2022-11-04T21:24:23.941Z,14.50
2022-11-04T21:26:51.997Z,12.80
2022-11-04T21:29:20.462Z,10.00
2022-11-04T21:31:48.785Z,14.20
2022-11-04T21:34:16.911Z,12.25
2022-11-04T21:36:45.635Z,12.50
2022-11-04T21:39:13.645Z,13.00
2022-11-04T21:41:43.044Z,11.00
2022-11-04T21:44:11.819Z,13.80
2022-11-04T21:46:39.976Z,13.00
2022-11-04T21:49:08.100Z,8.80
2022-11-04T21:51:36.148Z,14.20
2022-11-04T21:54:06.232Z,12.20
2022-11-04T21:56:34.311Z,12.40
2022-11-04T21:59:03.728Z,10.75
2022-11-04T22:01:31.965Z,11.50
2022-11-04T22:04:00.913Z,11.00
2022-11-04T22:06:33.693Z,13.33
2022-11-04T22:09:02.498Z,13.00
2022-11-04T22:11:31.231Z,16.60
2022-11-04T22:14:00.117Z,14.00
2022-11-04T22:16:30.586Z,11.00
2022-11-04T22:18:59.314Z,10.00
2022-11-04T22:21:27.870Z,10.60
2022-11-04T22:23:56.052Z,13.00
2022-11-04T22:26:25.583Z,12.00
2022-11-04T22:28:53.707Z,12.00
2022-11-04T22:31:22.900Z,12.00
2022-11-04T22:33:52.498Z,11.00
2022-11-04T22:36:20.714Z,11.00
2022-11-04T22:38:48.746Z,11.00
2022-11-04T22:41:18.512Z,11.00
2022-11-04T22:43:46.537Z,13.00
2022-11-04T22:46:15.619Z,11.00
2022-11-04T22:48:43.755Z,12.00
2022-11-04T22:51:13.163Z,11.00
2022-11-04T22:53:41.243Z,9.60
2022-11-04T22:56:10.726Z,8.00
2022-11-04T22:58:38.864Z,10.00
2022-11-04T23:01:08.029Z,10.00
2022-11-04T23:03:36.180Z,10.75
2022-11-04T23:06:05.097Z,11.80
2022-11-04T23:08:35.119Z,9.20
2022-11-04T23:11:23.027Z,10.25
2022-11-04T23:14:11.381Z,11.50
2022-11-04T23:16:58.554Z,10.60
2022-11-04T23:19:30.746Z,8.00
2022-11-04T23:22:16.348Z,8.00
2022-11-04T23:25:03.167Z,11.00
2022-11-04T23:27:49.118Z,7.80
2022-11-04T23:30:22.884Z,8.00
2022-11-04T23:32:51.009Z,11.67
2022-11-04T23:35:36.494Z,10.50
2022-11-04T23:38:04.551Z,10.40
2022-11-04T23:40:33.966Z,9.20
2022-11-04T23:43:00.995Z,8.00
2022-11-04T23:45:46.690Z,7.00
2022-11-04T23:48:32.635Z,7.00
2022-11-04T23:51:19.152Z,8.60
2022-11-04T23:54:04.635Z,7.20
2022-11-04T23:56:51.564Z,6.50
2022-11-04T23:59:37.324Z,6.40
